sensor_id;sensor_type;location;lat;lon;timestamp;pressure;altitude;pressure_sealevel;temperature;humidity
42887;BME280;29032;56.028;92.904;2022-12-22T00:04:00;98934.88;;;-1.53;45.51
42887;BME280;29032;56.028;92.904;2022-12-22T00:09:04;98943.34;;;-1.51;45.70
42887;BME280;29032;56.028;92.904;2022-12-22T00:14:07;98934.88;;;-1.53;45.43
42887;BME280;29032;56.028;92.904;2022-12-22T00:19:11;98930.06;;;-1.58;45.45
42887;BME280;29032;56.028;92.904;2022-12-22T00:24:15;98941.06;;;-1.64;45.43
42887;BME280;29032;56.028;92.904;2022-12-22T00:29:18;98947.84;;;-1.91;45.86
42887;BME280;29032;56.028;92.904;2022-12-22T00:34:20;98968.22;;;-2.03;45.70
42887;BME280;29032;56.028;92.904;2022-12-22T00:39:25;98967.91;;;-2.11;46.60
42887;BME280;29032;56.028;92.904;2022-12-22T00:44:27;98966.78;;;-2.24;46.31
42887;BME280;29032;56.028;92.904;2022-12-22T00:49:31;98961.63;;;-2.17;46.47
42887;BME280;29032;56.028;92.904;2022-12-22T00:54:35;98974.81;;;-2.21;46.73
42887;BME280;29032;56.028;92.904;2022-12-22T00:59:38;98981.59;;;-2.16;46.10
42887;BME280;29032;56.028;92.904;2022-12-22T01:04:40;98985.56;;;-2.17;46.50
42887;BME280;29032;56.028;92.904;2022-12-22T01:09:48;98970.91;;;-2.09;46.51
42887;BME280;29032;56.028;92.904;2022-12-22T01:14:51;98980.19;;;-2.06;46.60
42887;BME280;29032;56.028;92.904;2022-12-22T01:19:54;98987.97;;;-1.99;46.75
42887;BME280;29032;56.028;92.904;2022-12-22T01:24:57;98975.31;;;-1.91;46.14
42887;BME280;29032;56.028;92.904;2022-12-22T01:30:00;98984.78;;;-1.92;46.38
42887;BME280;29032;56.028;92.904;2022-12-22T01:35:02;98981.75;;;-1.94;46.17
42887;BME280;29032;56.028;92.904;2022-12-22T01:40:08;99000.03;;;-1.91;46.16
42887;BME280;29032;56.028;92.904;2022-12-22T01:45:20;99013.34;;;-2.10;46.84
42887;BME280;29032;56.028;92.904;2022-12-22T01:50:28;99024.53;;;-2.13;46.48
42887;BME280;29032;56.028;92.904;2022-12-22T01:55:32;99032.47;;;-2.21;46.62
42887;BME280;29032;56.028;92.904;2022-12-22T02:00:35;99064.91;;;-2.19;45.87
42887;BME280;29032;56.028;92.904;2022-12-22T02:05:44;99057.16;;;-1.95;46.55
42887;BME280;29032;56.028;92.904;2022-12-22T02:11:00;99048.31;;;-1.79;45.42
42887;BME280;29032;56.028;92.904;2022-12-22T02:16:10;99052.44;;;-1.63;45.74
42887;BME280;29032;56.028;92.904;2022-12-22T02:21:18;99057.84;;;-1.42;45.40
42887;BME280;29032;56.028;92.904;2022-12-22T02:26:27;99070.41;;;-1.30;45.53
42887;BME280;29032;56.028;92.904;2022-12-22T02:31:34;99087.44;;;-1.26;45.07
42887;BME280;29032;56.028;92.904;2022-12-22T02:36:45;99106.22;;;-1.19;44.81
42887;BME280;29032;56.028;92.904;2022-12-22T02:41:55;99130.72;;;-1.15;44.58
42887;BME280;29032;56.028;92.904;2022-12-22T02:47:05;99144.22;;;-1.17;44.64
42887;BME280;29032;56.028;92.904;2022-12-22T02:52:14;99166.47;;;-1.47;44.99
42887;BME280;29032;56.028;92.904;2022-12-22T02:57:20;99187.84;;;-1.83;45.88
42887;BME280;29032;56.028;92.904;2022-12-22T03:02:22;99191.97;;;-2.34;45.67
42887;BME280;29032;56.028;92.904;2022-12-22T03:07:24;99167.38;;;-2.63;45.01
42887;BME280;29032;56.028;92.904;2022-12-22T03:12:28;99192.13;;;-2.93;44.12
42887;BME280;29032;56.028;92.904;2022-12-22T03:18:03;99189.63;;;-3.26;45.37
42887;BME280;29032;56.028;92.904;2022-12-22T03:23:06;99189.50;;;-3.31;47.11
42887;BME280;29032;56.028;92.904;2022-12-22T03:28:10;99200.38;;;-3.37;47.00
42887;BME280;29032;56.028;92.904;2022-12-22T03:33:12;99214.06;;;-3.52;46.41
42887;BME280;29032;56.028;92.904;2022-12-22T03:38:14;99210.81;;;-3.65;47.51
42887;BME280;29032;56.028;92.904;2022-12-22T03:43:18;99207.13;;;-3.62;47.55
42887;BME280;29032;56.028;92.904;2022-12-22T03:48:20;99200.47;;;-3.61;48.00
42887;BME280;29032;56.028;92.904;2022-12-22T03:53:22;99206.69;;;-3.46;47.01
42887;BME280;29032;56.028;92.904;2022-12-22T03:58:26;99200.56;;;-3.40;46.18
42887;BME280;29032;56.028;92.904;2022-12-22T04:03:28;99204.81;;;-3.39;46.71
42887;BME280;29032;56.028;92.904;2022-12-22T04:08:30;99181.19;;;-3.52;46.25
42887;BME280;29032;56.028;92.904;2022-12-22T04:13:33;99223.50;;;-3.53;46.06
42887;BME280;29032;56.028;92.904;2022-12-22T04:18:35;99231.22;;;-3.66;44.94
42887;BME280;29032;56.028;92.904;2022-12-22T04:23:38;99260.31;;;-3.68;45.00
42887;BME280;29032;56.028;92.904;2022-12-22T04:28:41;99262.69;;;-3.85;44.03
42887;BME280;29032;56.028;92.904;2022-12-22T04:33:43;99258.72;;;-3.84;44.01
42887;BME280;29032;56.028;92.904;2022-12-22T04:38:45;99262.56;;;-3.91;43.78
42887;BME280;29032;56.028;92.904;2022-12-22T04:43:49;99280.63;;;-3.84;43.53
42887;BME280;29032;56.028;92.904;2022-12-22T04:48:51;99268.88;;;-4.00;43.82
42887;BME280;29032;56.028;92.904;2022-12-22T04:53:53;99294.78;;;-4.10;43.38
42887;BME280;29032;56.028;92.904;2022-12-22T04:58:57;99312.44;;;-4.11;42.14
42887;BME280;29032;56.028;92.904;2022-12-22T05:03:59;99321.22;;;-4.07;41.99
42887;BME280;29032;56.028;92.904;2022-12-22T05:09:01;99330.38;;;-4.10;41.92
42887;BME280;29032;56.028;92.904;2022-12-22T05:14:06;99350.41;;;-4.04;42.30
42887;BME280;29032;56.028;92.904;2022-12-22T05:19:08;99349.59;;;-3.95;42.57
42887;BME280;29032;56.028;92.904;2022-12-22T05:24:10;99352.50;;;-3.99;42.23
42887;BME280;29032;56.028;92.904;2022-12-22T05:29:14;99375.38;;;-4.11;42.10
42887;BME280;29032;56.028;92.904;2022-12-22T05:34:16;99405.50;;;-4.20;41.81
42887;BME280;29032;56.028;92.904;2022-12-22T05:39:19;99405.50;;;-4.20;40.81
42887;BME280;29032;56.028;92.904;2022-12-22T05:44:22;99422.97;;;-4.17;40.61
42887;BME280;29032;56.028;92.904;2022-12-22T05:49:25;99435.91;;;-4.27;40.08
42887;BME280;29032;56.028;92.904;2022-12-22T05:54:27;99444.59;;;-4.29;39.57
42887;BME280;29032;56.028;92.904;2022-12-22T05:59:30;99481.50;;;-4.24;39.61
42887;BME280;29032;56.028;92.904;2022-12-22T06:04:32;99469.06;;;-4.34;38.59
42887;BME280;29032;56.028;92.904;2022-12-22T06:09:35;99478.81;;;-4.42;38.03
42887;BME280;29032;56.028;92.904;2022-12-22T06:14:38;99487.03;;;-4.70;36.78
42887;BME280;29032;56.028;92.904;2022-12-22T06:19:40;99496.75;;;-4.78;36.30
42887;BME280;29032;56.028;92.904;2022-12-22T06:24:42;99498.84;;;-5.10;35.56
42887;BME280;29032;56.028;92.904;2022-12-22T06:29:46;99497.00;;;-5.22;35.63
42887;BME280;29032;56.028;92.904;2022-12-22T06:34:48;99516.06;;;-5.31;34.11
42887;BME280;29032;56.028;92.904;2022-12-22T06:39:50;99523.97;;;-5.33;34.37
42887;BME280;29032;56.028;92.904;2022-12-22T06:44:54;99552.31;;;-5.40;33.65
42887;BME280;29032;56.028;92.904;2022-12-22T06:49:56;99566.69;;;-5.48;34.12
42887;BME280;29032;56.028;92.904;2022-12-22T06:54:58;99545.28;;;-5.59;34.27
42887;BME280;29032;56.028;92.904;2022-12-22T07:00:03;99545.44;;;-5.53;34.56
42887;BME280;29032;56.028;92.904;2022-12-22T07:05:06;99575.34;;;-5.50;34.92
42887;BME280;29032;56.028;92.904;2022-12-22T07:10:09;99579.28;;;-5.51;36.88
42887;BME280;29032;56.028;92.904;2022-12-22T07:15:12;99592.47;;;-5.49;37.33
42887;BME280;29032;56.028;92.904;2022-12-22T07:20:15;99596.88;;;-5.74;37.20
42887;BME280;29032;56.028;92.904;2022-12-22T07:25:18;99614.56;;;-5.66;36.81
42887;BME280;29032;56.028;92.904;2022-12-22T07:30:21;99620.66;;;-5.52;35.71
42887;BME280;29032;56.028;92.904;2022-12-22T07:35:24;99625.06;;;-5.55;35.11
42887;BME280;29032;56.028;92.904;2022-12-22T07:40:26;99650.16;;;-5.69;34.79
42887;BME280;29032;56.028;92.904;2022-12-22T07:45:30;99669.81;;;-5.96;35.28
42887;BME280;29032;56.028;92.904;2022-12-22T07:50:32;99643.44;;;-5.99;35.84
42887;BME280;29032;56.028;92.904;2022-12-22T07:55:35;99686.06;;;-5.93;36.60
42887;BME280;29032;56.028;92.904;2022-12-22T08:00:39;99695.41;;;-5.81;38.03
42887;BME280;29032;56.028;92.904;2022-12-22T08:05:41;99724.41;;;-5.74;37.80
42887;BME280;29032;56.028;92.904;2022-12-22T08:10:43;99735.94;;;-5.92;37.58
42887;BME280;29032;56.028;92.904;2022-12-22T08:15:47;99745.25;;;-6.02;35.60
42887;BME280;29032;56.028;92.904;2022-12-22T08:20:49;99771.16;;;-6.20;34.48
42887;BME280;29032;56.028;92.904;2022-12-22T08:25:55;99804.41;;;-6.12;35.13
42887;BME280;29032;56.028;92.904;2022-12-22T08:31:03;99808.66;;;-5.98;34.53
42887;BME280;29032;56.028;92.904;2022-12-22T08:36:06;99819.56;;;-5.98;34.00
42887;BME280;29032;56.028;92.904;2022-12-22T08:41:17;99830.28;;;-6.42;33.05
42887;BME280;29032;56.028;92.904;2022-12-22T08:46:21;99842.25;;;-6.65;33.38
42887;BME280;29032;56.028;92.904;2022-12-22T08:51:23;99854.94;;;-6.87;33.40
42887;BME280;29032;56.028;92.904;2022-12-22T08:56:25;99871.88;;;-6.80;33.86
42887;BME280;29032;56.028;92.904;2022-12-22T09:01:30;99881.72;;;-6.69;33.76
42887;BME280;29032;56.028;92.904;2022-12-22T09:06:33;99906.53;;;-6.80;33.18
42887;BME280;29032;56.028;92.904;2022-12-22T09:11:36;99924.06;;;-6.81;33.76
42887;BME280;29032;56.028;92.904;2022-12-22T09:16:40;99941.19;;;-6.81;34.00
42887;BME280;29032;56.028;92.904;2022-12-22T09:21:42;99967.72;;;-6.68;34.47
42887;BME280;29032;56.028;92.904;2022-12-22T09:26:45;99991.44;;;-6.53;34.42
42887;BME280;29032;56.028;92.904;2022-12-22T09:31:48;100013.72;;;-6.41;34.59
42887;BME280;29032;56.028;92.904;2022-12-22T09:36:51;100027.38;;;-6.41;34.65
42887;BME280;29032;56.028;92.904;2022-12-22T09:41:53;100056.81;;;-6.65;35.30
42887;BME280;29032;56.028;92.904;2022-12-22T09:47:00;100068.56;;;-6.68;35.99
42887;BME280;29032;56.028;92.904;2022-12-22T09:52:03;100096.69;;;-6.88;36.45
42887;BME280;29032;56.028;92.904;2022-12-22T09:57:10;100097.22;;;-6.93;37.10
42887;BME280;29032;56.028;92.904;2022-12-22T10:02:24;100121.44;;;-7.15;37.11
42887;BME280;29032;56.028;92.904;2022-12-22T10:07:31;100144.66;;;-7.26;39.04
42887;BME280;29032;56.028;92.904;2022-12-22T10:12:34;100165.13;;;-7.38;43.12
42887;BME280;29032;56.028;92.904;2022-12-22T10:17:37;100186.84;;;-7.74;47.87
42887;BME280;29032;56.028;92.904;2022-12-22T10:22:46;100220.13;;;-8.57;57.06
42887;BME280;29032;56.028;92.904;2022-12-22T10:27:49;100226.28;;;-9.07;57.89
42887;BME280;29032;56.028;92.904;2022-12-22T10:33:07;100237.56;;;-9.12;57.18
42887;BME280;29032;56.028;92.904;2022-12-22T10:38:14;100266.22;;;-9.07;51.89
42887;BME280;29032;56.028;92.904;2022-12-22T10:43:19;100272.94;;;-9.15;52.11
42887;BME280;29032;56.028;92.904;2022-12-22T10:48:28;100315.47;;;-9.05;50.25
42887;BME280;29032;56.028;92.904;2022-12-22T10:53:38;100294.97;;;-9.10;48.23
42887;BME280;29032;56.028;92.904;2022-12-22T10:58:47;100308.75;;;-9.28;45.60
42887;BME280;29032;56.028;92.904;2022-12-22T11:03:51;100327.75;;;-9.28;45.99
42887;BME280;29032;56.028;92.904;2022-12-22T11:08:53;100339.28;;;-9.20;43.46
42887;BME280;29032;56.028;92.904;2022-12-22T11:14:04;100348.72;;;-8.98;42.00
42887;BME280;29032;56.028;92.904;2022-12-22T11:19:22;100372.13;;;-8.73;42.19
42887;BME280;29032;56.028;92.904;2022-12-22T11:24:39;100376.38;;;-8.72;40.31
42887;BME280;29032;56.028;92.904;2022-12-22T11:30:03;100388.91;;;-8.82;38.16
42887;BME280;29032;56.028;92.904;2022-12-22T11:35:12;100396.00;;;-8.91;38.53
42887;BME280;29032;56.028;92.904;2022-12-22T11:40:27;100417.03;;;-8.99;38.42
42887;BME280;29032;56.028;92.904;2022-12-22T11:45:52;100424.13;;;-9.09;38.68
42887;BME280;29032;56.028;92.904;2022-12-22T11:51:06;100436.16;;;-9.10;38.68
42887;BME280;29032;56.028;92.904;2022-12-22T11:56:20;100445.84;;;-9.09;39.86
42887;BME280;29032;56.028;92.904;2022-12-22T12:01:36;100451.34;;;-9.16;41.03
42887;BME280;29032;56.028;92.904;2022-12-22T12:07:03;100476.94;;;-9.17;41.25
42887;BME280;29032;56.028;92.904;2022-12-22T12:12:16;100496.44;;;-9.29;42.00
42887;BME280;29032;56.028;92.904;2022-12-22T12:17:28;100513.91;;;-9.30;42.92
42887;BME280;29032;56.028;92.904;2022-12-22T12:22:43;100525.94;;;-9.31;43.26
42887;BME280;29032;56.028;92.904;2022-12-22T12:27:59;100530.50;;;-9.21;42.22
42887;BME280;29032;56.028;92.904;2022-12-22T12:33:11;100557.06;;;-9.46;46.59
42887;BME280;29032;56.028;92.904;2022-12-22T12:38:25;100561.06;;;-9.72;47.62
42887;BME280;29032;56.028;92.904;2022-12-22T12:43:30;100568.91;;;-9.92;48.13
42887;BME280;29032;56.028;92.904;2022-12-22T12:48:38;100592.09;;;-9.77;47.66
42887;BME280;29032;56.028;92.904;2022-12-22T12:59:46;100622.25;;;-9.68;43.86
42887;BME280;29032;56.028;92.904;2022-12-22T13:05:10;100627.41;;;-9.91;44.05
42887;BME280;29032;56.028;92.904;2022-12-22T13:10:19;100638.66;;;-9.93;42.98
42887;BME280;29032;56.028;92.904;2022-12-22T13:15:29;100650.31;;;-10.07;41.90
42887;BME280;29032;56.028;92.904;2022-12-22T13:20:34;100668.13;;;-10.02;42.20
42887;BME280;29032;56.028;92.904;2022-12-22T13:25:47;100689.00;;;-9.88;41.42
42887;BME280;29032;56.028;92.904;2022-12-22T13:30:52;100668.09;;;-10.06;39.25
42887;BME280;29032;56.028;92.904;2022-12-22T13:35:58;100699.09;;;-10.14;39.22
42887;BME280;29032;56.028;92.904;2022-12-22T13:41:10;100706.47;;;-10.32;38.28
42887;BME280;29032;56.028;92.904;2022-12-22T13:46:14;100715.00;;;-10.55;38.78
42887;BME280;29032;56.028;92.904;2022-12-22T13:51:18;100722.34;;;-10.73;39.25
42887;BME280;29032;56.028;92.904;2022-12-22T13:56:25;100763.72;;;-10.87;38.21
42887;BME280;29032;56.028;92.904;2022-12-22T14:01:28;100781.06;;;-10.99;37.81
42887;BME280;29032;56.028;92.904;2022-12-22T14:06:32;100790.34;;;-11.00;37.87
42887;BME280;29032;56.028;92.904;2022-12-22T14:11:36;100821.66;;;-10.99;38.25
42887;BME280;29032;56.028;92.904;2022-12-22T14:16:42;100838.34;;;-10.86;38.08
42887;BME280;29032;56.028;92.904;2022-12-22T14:21:48;100832.97;;;-10.79;37.39
42887;BME280;29032;56.028;92.904;2022-12-22T14:26:53;100863.94;;;-10.73;37.01
42887;BME280;29032;56.028;92.904;2022-12-22T14:31:57;100862.38;;;-10.74;37.68
42887;BME280;29032;56.028;92.904;2022-12-22T14:37:01;100884.84;;;-10.73;36.87
42887;BME280;29032;56.028;92.904;2022-12-22T14:42:05;100892.97;;;-10.73;36.81
42887;BME280;29032;56.028;92.904;2022-12-22T14:47:16;100908.81;;;-10.72;36.89
42887;BME280;29032;56.028;92.904;2022-12-22T14:52:25;100925.53;;;-10.55;37.97
42887;BME280;29032;56.028;92.904;2022-12-22T14:57:35;100935.19;;;-10.54;37.95
42887;BME280;29032;56.028;92.904;2022-12-22T15:02:39;100948.28;;;-10.67;37.99
42887;BME280;29032;56.028;92.904;2022-12-22T15:07:46;100956.81;;;-10.69;37.12
42887;BME280;29032;56.028;92.904;2022-12-22T15:12:49;100977.22;;;-10.82;35.79
42887;BME280;29032;56.028;92.904;2022-12-22T15:17:52;100972.06;;;-11.05;35.90
42887;BME280;29032;56.028;92.904;2022-12-22T15:22:54;100985.22;;;-11.07;35.70
42887;BME280;29032;56.028;92.904;2022-12-22T15:27:58;101002.13;;;-11.21;35.84
42887;BME280;29032;56.028;92.904;2022-12-22T15:33:00;101019.09;;;-11.24;35.33
42887;BME280;29032;56.028;92.904;2022-12-22T15:38:09;101023.81;;;-11.13;35.75
42887;BME280;29032;56.028;92.904;2022-12-22T15:43:14;101028.13;;;-11.05;35.56
42887;BME280;29032;56.028;92.904;2022-12-22T15:48:20;101032.88;;;-10.88;35.97
42887;BME280;29032;56.028;92.904;2022-12-22T15:53:24;101022.56;;;-10.72;36.19
42887;BME280;29032;56.028;92.904;2022-12-22T15:58:31;101029.63;;;-10.56;35.58
42887;BME280;29032;56.028;92.904;2022-12-22T16:03:38;101042.06;;;-10.48;35.66
42887;BME280;29032;56.028;92.904;2022-12-22T16:08:42;101039.06;;;-10.25;36.16
42887;BME280;29032;56.028;92.904;2022-12-22T16:13:48;101045.34;;;-10.04;36.53
42887;BME280;29032;56.028;92.904;2022-12-22T16:18:51;101063.25;;;-9.88;35.57
42887;BME280;29032;56.028;92.904;2022-12-22T16:23:53;101075.69;;;-9.69;35.76
42887;BME280;29032;56.028;92.904;2022-12-22T16:28:57;101075.75;;;-9.59;34.83
42887;BME280;29032;56.028;92.904;2022-12-22T16:33:59;101076.50;;;-9.62;35.24
42887;BME280;29032;56.028;92.904;2022-12-22T16:39:01;101092.78;;;-9.62;35.20
42887;BME280;29032;56.028;92.904;2022-12-22T16:44:06;101092.78;;;-9.55;35.38
42887;BME280;29032;56.028;92.904;2022-12-22T16:49:12;101097.47;;;-9.48;35.18
42887;BME280;29032;56.028;92.904;2022-12-22T16:54:16;101104.47;;;-9.43;34.39
42887;BME280;29032;56.028;92.904;2022-12-22T16:59:20;101098.28;;;-9.37;35.13
42887;BME280;29032;56.028;92.904;2022-12-22T17:04:24;101108.38;;;-9.30;35.68
42887;BME280;29032;56.028;92.904;2022-12-22T17:09:29;101116.91;;;-9.21;34.90
42887;BME280;29032;56.028;92.904;2022-12-22T17:14:36;101115.38;;;-9.08;34.91
42887;BME280;29032;56.028;92.904;2022-12-22T17:19:39;101120.03;;;-8.98;34.54
42887;BME280;29032;56.028;92.904;2022-12-22T17:24:42;101122.00;;;-8.91;34.00
42887;BME280;29032;56.028;92.904;2022-12-22T17:29:45;101123.94;;;-8.77;34.68
42887;BME280;29032;56.028;92.904;2022-12-22T17:34:47;101110.34;;;-8.67;34.21
42887;BME280;29032;56.028;92.904;2022-12-22T17:39:52;101106.06;;;-8.57;33.98
42887;BME280;29032;56.028;92.904;2022-12-22T17:44:59;101109.59;;;-8.60;33.80
42887;BME280;29032;56.028;92.904;2022-12-22T17:50:01;101120.06;;;-8.55;33.76
42887;BME280;29032;56.028;92.904;2022-12-22T17:55:05;101115.00;;;-8.56;35.60
42887;BME280;29032;56.028;92.904;2022-12-22T18:00:16;101114.63;;;-8.48;34.57
42887;BME280;29032;56.028;92.904;2022-12-22T18:05:20;101131.69;;;-8.51;33.21
42887;BME280;29032;56.028;92.904;2022-12-22T18:10:28;101124.72;;;-8.66;33.61
42887;BME280;29032;56.028;92.904;2022-12-22T18:15:33;101123.94;;;-8.77;34.32
42887;BME280;29032;56.028;92.904;2022-12-22T18:20:35;101130.16;;;-8.73;34.85
42887;BME280;29032;56.028;92.904;2022-12-22T18:25:37;101127.06;;;-8.75;35.14
42887;BME280;29032;56.028;92.904;2022-12-22T18:30:41;101123.56;;;-8.72;34.75
42887;BME280;29032;56.028;92.904;2022-12-22T18:35:43;101127.81;;;-8.78;36.13
42887;BME280;29032;56.028;92.904;2022-12-22T18:40:46;101122.38;;;-8.71;34.93
42887;BME280;29032;56.028;92.904;2022-12-22T18:45:50;101125.09;;;-8.71;36.02
42887;BME280;29032;56.028;92.904;2022-12-22T18:50:52;101144.91;;;-8.67;35.46
42887;BME280;29032;56.028;92.904;2022-12-22T18:55:54;101136.75;;;-8.74;34.87
42887;BME280;29032;56.028;92.904;2022-12-22T19:00:58;101143.72;;;-8.77;35.56
42887;BME280;29032;56.028;92.904;2022-12-22T19:06:01;101147.25;;;-8.69;34.87
42887;BME280;29032;56.028;92.904;2022-12-22T19:11:04;101139.47;;;-8.96;34.88
42887;BME280;29032;56.028;92.904;2022-12-22T19:16:12;101152.59;;;-9.12;34.86
42887;BME280;29032;56.028;92.904;2022-12-22T19:21:14;101156.09;;;-9.15;36.01
42887;BME280;29032;56.028;92.904;2022-12-22T19:26:19;101161.06;;;-9.42;35.60
42887;BME280;29032;56.028;92.904;2022-12-22T19:31:25;101161.06;;;-9.45;35.48
42887;BME280;29032;56.028;92.904;2022-12-22T19:36:29;101159.47;;;-9.57;35.11
42887;BME280;29032;56.028;92.904;2022-12-22T19:41:36;101162.50;;;-9.73;35.31
42887;BME280;29032;56.028;92.904;2022-12-22T19:46:41;101178.75;;;-9.77;36.00
42887;BME280;29032;56.028;92.904;2022-12-22T19:51:43;101178.75;;;-9.77;35.47
42887;BME280;29032;56.028;92.904;2022-12-22T19:56:47;101182.59;;;-9.88;35.80
42887;BME280;29032;56.028;92.904;2022-12-22T20:01:53;101181.72;;;-10.03;35.23
42887;BME280;29032;56.028;92.904;2022-12-22T20:06:55;101176.22;;;-10.14;35.70
42887;BME280;29032;56.028;92.904;2022-12-22T20:11:57;101195.16;;;-10.21;35.30
42887;BME280;29032;56.028;92.904;2022-12-22T20:17:00;101188.47;;;-10.34;35.84
42887;BME280;29032;56.028;92.904;2022-12-22T20:22:03;101197.38;;;-10.37;35.20
42887;BME280;29032;56.028;92.904;2022-12-22T20:27:15;101201.63;;;-10.36;35.83
42887;BME280;29032;56.028;92.904;2022-12-22T20:32:19;101232.72;;;-10.23;36.04
42887;BME280;29032;56.028;92.904;2022-12-22T20:37:22;101228.22;;;-9.97;35.55
42887;BME280;29032;56.028;92.904;2022-12-22T20:42:24;101227.59;;;-9.77;34.59
42887;BME280;29032;56.028;92.904;2022-12-22T20:47:28;101243.53;;;-9.68;34.93
42887;BME280;29032;56.028;92.904;2022-12-22T20:52:30;101252.16;;;-9.52;34.90
42887;BME280;29032;56.028;92.904;2022-12-22T20:57:32;101244.75;;;-9.55;33.72
42887;BME280;29032;56.028;92.904;2022-12-22T21:02:36;101261.03;;;-9.55;34.59
42887;BME280;29032;56.028;92.904;2022-12-22T21:07:38;101258.31;;;-9.55;34.60
42887;BME280;29032;56.028;92.904;2022-12-22T21:12:40;101264.88;;;-9.63;34.61
42887;BME280;29032;56.028;92.904;2022-12-22T21:17:43;101268.78;;;-9.57;33.84
42887;BME280;29032;56.028;92.904;2022-12-22T21:22:46;101261.69;;;-9.76;34.06
42887;BME280;29032;56.028;92.904;2022-12-22T21:27:49;101279.63;;;-9.60;34.22
42887;BME280;29032;56.028;92.904;2022-12-22T21:32:54;101281.66;;;-9.46;34.57
42887;BME280;29032;56.028;92.904;2022-12-22T21:37:57;101273.56;;;-9.39;34.20
42887;BME280;29032;56.028;92.904;2022-12-22T21:42:59;101280.59;;;-9.24;34.04
42887;BME280;29032;56.028;92.904;2022-12-22T21:48:03;101283.69;;;-9.22;33.33
42887;BME280;29032;56.028;92.904;2022-12-22T21:53:06;101292.22;;;-9.27;33.88
42887;BME280;29032;56.028;92.904;2022-12-22T21:58:11;101305.34;;;-9.33;33.66
42887;BME280;29032;56.028;92.904;2022-12-22T22:03:15;101309.97;;;-9.40;33.54
42887;BME280;29032;56.028;92.904;2022-12-22T22:08:17;101307.22;;;-9.51;33.54
42887;BME280;29032;56.028;92.904;2022-12-22T22:13:19;101314.06;;;-9.71;33.49
42887;BME280;29032;56.028;92.904;2022-12-22T22:18:23;101304.31;;;-9.76;33.48
42887;BME280;29032;56.028;92.904;2022-12-22T22:23:25;101317.16;;;-9.69;33.66
42887;BME280;29032;56.028;92.904;2022-12-22T22:28:29;101322.59;;;-9.69;33.78
42887;BME280;29032;56.028;92.904;2022-12-22T22:33:33;101327.56;;;-9.79;33.42
42887;BME280;29032;56.028;92.904;2022-12-22T22:38:35;101339.03;;;-9.99;33.55
42887;BME280;29032;56.028;92.904;2022-12-22T22:43:37;101324.16;;;-10.16;34.14
42887;BME280;29032;56.028;92.904;2022-12-22T22:48:40;101346.06;;;-9.91;34.07
42887;BME280;29032;56.028;92.904;2022-12-22T22:53:43;101351.59;;;-9.81;33.70
42887;BME280;29032;56.028;92.904;2022-12-22T22:58:45;101358.25;;;-9.71;33.91
42887;BME280;29032;56.028;92.904;2022-12-22T23:03:48;101361.72;;;-9.74;33.36
42887;BME280;29032;56.028;92.904;2022-12-22T23:08:50;101360.91;;;-9.78;33.68
42887;BME280;29032;56.028;92.904;2022-12-22T23:13:53;101377.16;;;-9.78;33.46
42887;BME280;29032;56.028;92.904;2022-12-22T23:18:57;101375.56;;;-9.86;33.25
42887;BME280;29032;56.028;92.904;2022-12-22T23:23:59;101380.72;;;-10.15;33.46
42887;BME280;29032;56.028;92.904;2022-12-22T23:29:01;101391.03;;;-10.31;33.22
42887;BME280;29032;56.028;92.904;2022-12-22T23:34:05;101387.16;;;-10.64;33.79
42887;BME280;29032;56.028;92.904;2022-12-22T23:39:07;101405.44;;;-10.87;34.06
42887;BME280;29032;56.028;92.904;2022-12-22T23:44:09;101402.03;;;-11.10;34.37
42887;BME280;29032;56.028;92.904;2022-12-22T23:49:14;101412.16;;;-11.04;33.92
42887;BME280;29032;56.028;92.904;2022-12-22T23:54:16;101406.06;;;-10.97;34.61
42887;BME280;29032;56.028;92.904;2022-12-22T23:59:18;101415.44;;;-10.91;34.82
